Time;durP1;ratioP1;P1;durP2;ratioP2;P2;SDS_P1;SDS_P2;PMS_P1;PMS_P2;Temp;Humidity;BMP_temperature;BMP_pressure;BME280_temperature;BME280_humidity;BME280_pressure;Samples;Min_cycle;Max_cycle;Signal;HPM_P1;HPM_P2
2022/07/02 00:01:52;;;;;;;13.93;7.10;;;;;;;;;;5093006;28;20039;-76
2022/07/02 00:04:20;;;;;;;19.80;7.45;;;;;;;;;;5093622;28;20027;-76
2022/07/02 00:06:47;;;;;;;22.17;7.53;;;;;;;;;;5095050;28;20020;-76
2022/07/02 00:09:13;;;;;;;17.25;7.32;;;;;;;;;;5103483;28;20028;-76
2022/07/02 00:11:40;;;;;;;16.20;7.30;;;;;;;;;;5100810;28;20028;-76
2022/07/02 00:14:06;;;;;;;15.43;7.20;;;;;;;;;;5100946;28;20032;-75
2022/07/02 00:16:32;;;;;;;16.90;7.13;;;;;;;;;;5109880;28;20044;-76
2022/07/02 00:18:58;;;;;;;11.52;6.47;;;;;;;;;;5095622;28;20028;-77
2022/07/02 00:21:25;;;;;;;11.20;6.57;;;;;;;;;;5091832;28;20027;-77
2022/07/02 00:23:51;;;;;;;13.32;7.10;;;;;;;;;;5091710;28;20029;-77
2022/07/02 00:26:19;;;;;;;18.50;7.63;;;;;;;;;;5091812;28;20027;-77
2022/07/02 00:28:47;;;;;;;12.38;6.72;;;;;;;;;;5090836;28;20451;-77
2022/07/02 00:31:12;;;;;;;12.73;6.82;;;;;;;;;;5091783;28;20106;-77
2022/07/02 00:33:40;;;;;;;14.50;5.97;;;;;;;;;;5091630;28;20047;-77
2022/07/02 00:36:06;;;;;;;16.80;6.78;;;;;;;;;;5090319;28;20036;-77
2022/07/02 00:38:32;;;;;;;12.77;6.53;;;;;;;;;;5091976;28;20054;-76
2022/07/02 00:41:00;;;;;;;16.00;5.72;;;;;;;;;;5091814;28;20476;-76
2022/07/02 00:43:26;;;;;;;17.13;6.93;;;;;;;;;;5091483;28;20107;-76
2022/07/02 00:45:54;;;;;;;13.75;6.18;;;;;;;;;;5092137;28;20073;-75
2022/07/02 00:48:20;;;;;;;14.63;6.15;;;;;;;;;;5091873;28;20073;-76
2022/07/02 00:50:46;;;;;;;11.75;6.07;;;;;;;;;;5092810;28;20028;-75
2022/07/02 00:53:12;;;;;;;15.48;7.00;;;;;;;;;;5095177;28;20020;-75
2022/07/02 00:55:38;;;;;;;14.50;6.15;;;;;;;;;;5095160;28;20027;-76
2022/07/02 00:58:04;;;;;;;13.07;6.55;;;;;;;;;;5095366;28;20040;-76
2022/07/02 01:00:30;;;;;;;12.57;6.10;;;;;;;;;;5095167;28;20462;-76
2022/07/02 01:02:57;;;;;;;11.73;6.53;;;;;;;;;;5095185;28;20039;-76
2022/07/02 01:05:23;;;;;;;14.27;6.70;;;;;;;;;;5094993;28;20016;-76
2022/07/02 01:10:46;;;;;;;14.95;7.28;;;;;;;;;;5096653;28;20090;-76
2022/07/02 01:13:12;;;;;;;14.55;7.35;;;;;;;;;;5097361;28;20043;-77
2022/07/02 01:15:39;;;;;;;16.75;6.95;;;;;;;;;;5096805;28;20024;-76
2022/07/02 01:18:05;;;;;;;11.00;6.05;;;;;;;;;;5100404;28;20477;-75
2022/07/02 01:20:31;;;;;;;14.70;6.82;;;;;;;;;;5099063;28;20088;-76
2022/07/02 01:22:57;;;;;;;16.92;6.80;;;;;;;;;;5100380;28;20028;-76
2022/07/02 01:25:23;;;;;;;11.77;6.35;;;;;;;;;;5098816;28;20511;-75
2022/07/02 01:27:49;;;;;;;11.98;6.82;;;;;;;;;;5098276;28;20097;-76
2022/07/02 01:30:15;;;;;;;13.98;6.53;;;;;;;;;;5095661;28;20096;-76
2022/07/02 01:32:41;;;;;;;11.88;6.03;;;;;;;;;;5094853;28;20447;-76
2022/07/02 01:35:11;;;;;;;16.42;7.00;;;;;;;;;;5094702;28;20492;-75
2022/07/02 01:37:38;;;;;;;13.40;6.75;;;;;;;;;;5094506;28;20145;-76
2022/07/02 01:40:04;;;;;;;10.70;6.18;;;;;;;;;;5094487;28;20029;-76
2022/07/02 01:42:30;;;;;;;13.75;6.30;;;;;;;;;;5094344;28;20024;-76
2022/07/02 01:44:56;;;;;;;13.95;6.22;;;;;;;;;;5094479;28;20031;-75
2022/07/02 01:47:22;;;;;;;18.42;7.90;;;;;;;;;;5094391;28;20584;-75
2022/07/02 01:49:48;;;;;;;15.45;6.68;;;;;;;;;;5094410;28;20097;-76
2022/07/02 01:52:15;;;;;;;10.93;6.57;;;;;;;;;;5093381;28;20469;-76
2022/07/02 01:54:41;;;;;;;11.70;6.72;;;;;;;;;;5093492;28;20540;-75
2022/07/02 01:57:07;;;;;;;15.38;7.93;;;;;;;;;;5097822;28;20028;-75
2022/07/02 01:59:34;;;;;;;13.68;7.43;;;;;;;;;;5099820;28;20087;-76
2022/07/02 02:02:00;;;;;;;13.73;7.20;;;;;;;;;;5098970;28;20026;-76
2022/07/02 02:04:26;;;;;;;19.25;7.80;;;;;;;;;;5110476;28;20046;-75
2022/07/02 02:06:52;;;;;;;16.15;8.18;;;;;;;;;;5099172;28;20095;-75
2022/07/02 02:09:19;;;;;;;13.68;8.18;;;;;;;;;;5094251;28;20032;-76
2022/07/02 02:11:45;;;;;;;16.67;8.45;;;;;;;;;;5094388;28;20044;-76
2022/07/02 02:14:11;;;;;;;18.55;8.95;;;;;;;;;;5094207;28;20473;-76
2022/07/02 02:16:37;;;;;;;17.33;8.80;;;;;;;;;;5093585;28;20459;-76
2022/07/02 02:19:04;;;;;;;18.90;8.68;;;;;;;;;;5093824;28;20081;-76
2022/07/02 02:21:30;;;;;;;15.80;8.05;;;;;;;;;;5094184;28;20024;-76
2022/07/02 02:23:56;;;;;;;13.15;7.47;;;;;;;;;;5094183;28;20485;-77
2022/07/02 02:26:23;;;;;;;16.38;8.07;;;;;;;;;;5092376;28;20027;-77
2022/07/02 02:28:49;;;;;;;18.40;8.27;;;;;;;;;;5094192;28;20058;-75
2022/07/02 02:31:15;;;;;;;12.52;6.97;;;;;;;;;;5093435;28;20027;-75
2022/07/02 02:33:41;;;;;;;13.52;6.97;;;;;;;;;;5094089;28;20039;-75
2022/07/02 02:36:07;;;;;;;13.85;7.28;;;;;;;;;;5093275;28;20053;-76
2022/07/02 02:38:36;;;;;;;14.02;6.95;;;;;;;;;;5093729;28;20028;-73
2022/07/02 02:41:05;;;;;;;17.23;7.13;;;;;;;;;;5093370;28;20469;-75
2022/07/02 02:43:31;;;;;;;13.00;6.90;;;;;;;;;;5090951;28;20055;-76
2022/07/02 02:45:57;;;;;;;12.95;6.82;;;;;;;;;;5092821;28;20020;-75
2022/07/02 02:48:23;;;;;;;15.88;7.03;;;;;;;;;;5093590;28;20035;-77
2022/07/02 02:50:49;;;;;;;15.52;7.03;;;;;;;;;;5091893;28;20115;-75
2022/07/02 02:53:15;;;;;;;17.20;6.40;;;;;;;;;;5093507;28;20039;-77
2022/07/02 02:55:41;;;;;;;20.13;6.80;;;;;;;;;;5093535;28;20032;-75
2022/07/02 02:58:07;;;;;;;10.82;5.97;;;;;;;;;;5093158;28;20024;-76
2022/07/02 03:00:33;;;;;;;11.82;6.07;;;;;;;;;;5093294;28;20032;-76
2022/07/02 03:02:59;;;;;;;11.73;5.93;;;;;;;;;;5092737;28;20070;-75
2022/07/02 03:05:25;;;;;;;13.60;5.95;;;;;;;;;;5092556;28;20406;-77
2022/07/02 03:07:52;;;;;;;11.43;5.95;;;;;;;;;;5093400;28;20024;-76
2022/07/02 03:10:18;;;;;;;14.70;8.68;;;;;;;;;;5093461;28;20052;-75
2022/07/02 03:12:44;;;;;;;16.00;6.57;;;;;;;;;;5096798;28;20412;-76
2022/07/02 03:15:10;;;;;;;13.93;6.10;;;;;;;;;;5099022;28;20028;-75
2022/07/02 03:17:36;;;;;;;10.93;5.80;;;;;;;;;;5097166;28;20024;-76
2022/07/02 03:20:02;;;;;;;10.25;5.45;;;;;;;;;;5095587;28;20024;-76
2022/07/02 03:22:28;;;;;;;12.93;5.53;;;;;;;;;;5092557;28;20133;-77
2022/07/02 03:24:54;;;;;;;12.10;5.97;;;;;;;;;;5093041;28;20103;-74
2022/07/02 03:27:20;;;;;;;11.25;5.82;;;;;;;;;;5092129;28;20016;-76
2022/07/02 03:29:46;;;;;;;17.10;6.10;;;;;;;;;;5091096;28;20024;-76
2022/07/02 03:32:12;;;;;;;11.82;5.72;;;;;;;;;;5092591;28;20473;-76
2022/07/02 03:34:38;;;;;;;10.85;5.57;;;;;;;;;;5092224;28;20141;-75
2022/07/02 03:37:04;;;;;;;9.85;5.78;;;;;;;;;;5092126;28;20028;-75
2022/07/02 03:39:30;;;;;;;11.30;5.22;;;;;;;;;;5091016;28;20458;-75
2022/07/02 03:41:56;;;;;;;9.45;5.22;;;;;;;;;;5091988;28;20020;-75
2022/07/02 03:44:22;;;;;;;9.57;5.10;;;;;;;;;;5092242;28;20032;-75
2022/07/02 03:46:48;;;;;;;9.80;4.97;;;;;;;;;;5092246;28;20045;-76
2022/07/02 03:49:14;;;;;;;8.57;5.38;;;;;;;;;;5092794;28;20107;-75
2022/07/02 03:51:40;;;;;;;13.13;5.50;;;;;;;;;;5092784;28;20016;-76
2022/07/02 03:54:05;;;;;;;10.65;5.28;;;;;;;;;;5092065;28;20028;-75
2022/07/02 03:56:31;;;;;;;13.02;4.97;;;;;;;;;;5092354;28;20028;-75
2022/07/02 03:58:57;;;;;;;14.18;5.13;;;;;;;;;;5092461;28;20032;-75
2022/07/02 04:01:23;;;;;;;15.10;5.82;;;;;;;;;;5092132;28;20040;-75
2022/07/02 04:03:49;;;;;;;12.27;5.28;;;;;;;;;;5092406;28;20109;-76
2022/07/02 04:06:15;;;;;;;14.05;5.97;;;;;;;;;;5090712;28;20672;-76
2022/07/02 04:08:41;;;;;;;17.38;6.32;;;;;;;;;;5092073;28;20027;-76
2022/07/02 04:11:07;;;;;;;18.33;6.88;;;;;;;;;;5092047;28;20024;-77
2022/07/02 04:13:33;;;;;;;17.02;6.68;;;;;;;;;;5092000;28;20043;-75
2022/07/02 04:15:59;;;;;;;13.10;6.70;;;;;;;;;;5092278;28;20025;-76
2022/07/02 04:18:25;;;;;;;16.45;6.72;;;;;;;;;;5092128;28;20032;-76
2022/07/02 04:20:51;;;;;;;11.85;6.63;;;;;;;;;;5092302;28;20063;-75
2022/07/02 04:23:17;;;;;;;12.98;6.63;;;;;;;;;;5092086;28;20059;-75
2022/07/02 04:25:43;;;;;;;13.80;6.20;;;;;;;;;;5091550;28;20028;-76
2022/07/02 04:28:10;;;;;;;20.23;6.50;;;;;;;;;;5096038;28;20031;-76
2022/07/02 04:30:36;;;;;;;16.17;5.95;;;;;;;;;;5095780;28;20032;-77
2022/07/02 04:33:02;;;;;;;14.20;6.40;;;;;;;;;;5095769;28;20024;-76
2022/07/02 04:35:28;;;;;;;15.40;5.95;;;;;;;;;;5095539;28;20024;-75
2022/07/02 04:37:54;;;;;;;17.20;6.10;;;;;;;;;;5095652;28;20032;-76
2022/07/02 04:40:20;;;;;;;14.32;6.10;;;;;;;;;;5095820;28;20081;-76
2022/07/02 04:42:46;;;;;;;19.08;6.68;;;;;;;;;;5095849;28;20386;-75
2022/07/02 04:45:12;;;;;;;17.58;6.22;;;;;;;;;;5097945;28;20378;-75
2022/07/02 04:47:38;;;;;;;13.45;5.88;;;;;;;;;;5098437;28;20024;-75
2022/07/02 04:50:04;;;;;;;13.20;5.88;;;;;;;;;;5096235;28;20065;-75
2022/07/02 04:52:30;;;;;;;10.52;6.00;;;;;;;;;;5095944;28;20362;-76
2022/07/02 04:54:56;;;;;;;19.30;6.53;;;;;;;;;;5095998;28;20034;-76
2022/07/02 04:57:22;;;;;;;17.58;5.85;;;;;;;;;;5102508;28;20024;-76
2022/07/02 04:59:48;;;;;;;18.27;6.57;;;;;;;;;;5097641;28;20024;-75
2022/07/02 05:02:14;;;;;;;12.50;5.32;;;;;;;;;;5094936;28;20386;-76
2022/07/02 05:04:40;;;;;;;14.82;5.25;;;;;;;;;;5095101;28;20105;-76
2022/07/02 05:07:06;;;;;;;13.70;5.10;;;;;;;;;;5094875;28;20048;-76
2022/07/02 05:09:32;;;;;;;9.85;5.18;;;;;;;;;;5094874;28;20059;-76
2022/07/02 05:11:58;;;;;;;14.50;5.00;;;;;;;;;;5095305;28;20024;-77
2022/07/02 05:14:24;;;;;;;16.27;5.20;;;;;;;;;;5094801;28;20449;-76
2022/07/02 05:16:50;;;;;;;22.13;6.07;;;;;;;;;;5094617;28;20047;-77
2022/07/02 05:19:16;;;;;;;9.60;4.40;;;;;;;;;;5095746;28;20028;-76
2022/07/02 05:21:43;;;;;;;16.10;5.68;;;;;;;;;;5094478;28;20046;-76
2022/07/02 05:24:09;;;;;;;16.73;5.30;;;;;;;;;;5094572;28;20119;-76
2022/07/02 05:26:36;;;;;;;17.95;6.18;;;;;;;;;;5094837;28;20475;-76
2022/07/02 05:29:02;;;;;;;16.00;4.90;;;;;;;;;;5095903;28;20036;-77
2022/07/02 05:31:28;;;;;;;16.55;5.63;;;;;;;;;;5096874;28;20028;-78
2022/07/02 05:33:53;;;;;;;15.00;5.68;;;;;;;;;;5095448;28;20031;-78
2022/07/02 05:36:19;;;;;;;8.25;4.38;;;;;;;;;;5095389;28;20081;-76
2022/07/02 05:38:45;;;;;;;11.93;4.35;;;;;;;;;;5098768;28;20055;-76
2022/07/02 05:41:11;;;;;;;10.02;4.18;;;;;;;;;;5096850;28;20032;-77
2022/07/02 05:43:37;;;;;;;16.65;4.32;;;;;;;;;;5095463;28;20028;-76
2022/07/02 05:46:03;;;;;;;12.07;4.18;;;;;;;;;;5094240;28;20056;-75
2022/07/02 05:48:29;;;;;;;10.98;4.25;;;;;;;;;;5094470;28;20028;-77
2022/07/02 05:50:55;;;;;;;9.65;3.50;;;;;;;;;;5094463;28;20031;-76
2022/07/02 05:53:21;;;;;;;12.07;4.43;;;;;;;;;;5094543;28;20383;-75
2022/07/02 05:55:47;;;;;;;11.52;3.88;;;;;;;;;;5092937;28;20024;-75
2022/07/02 05:58:13;;;;;;;11.82;4.53;;;;;;;;;;5094459;28;20040;-76
2022/07/02 06:00:39;;;;;;;16.35;4.03;;;;;;;;;;5094129;28;20020;-76
2022/07/02 06:03:05;;;;;;;7.00;2.97;;;;;;;;;;5093805;28;20067;-75
2022/07/02 06:08:16;;;;;;;11.88;3.42;;;;;;;;;;5094356;28;20042;-75
2022/07/02 06:10:42;;;;;;;7.78;3.10;;;;;;;;;;5093994;28;20020;-75
2022/07/02 06:13:08;;;;;;;7.10;3.13;;;;;;;;;;5093747;28;20024;-75
2022/07/02 06:15:33;;;;;;;14.70;3.60;;;;;;;;;;5093465;28;20093;-75
2022/07/02 06:18:00;;;;;;;11.55;3.00;;;;;;;;;;5093746;28;20381;-74
2022/07/02 06:20:26;;;;;;;10.15;3.17;;;;;;;;;;5093737;28;20489;-75
2022/07/02 06:22:52;;;;;;;7.68;2.95;;;;;;;;;;5094107;28;20103;-76
2022/07/02 06:25:18;;;;;;;10.50;2.90;;;;;;;;;;5108358;28;20043;-75
2022/07/02 06:27:44;;;;;;;9.52;2.67;;;;;;;;;;5095925;28;20020;-75
2022/07/02 06:30:10;;;;;;;9.05;2.80;;;;;;;;;;5094687;28;20025;-75
2022/07/02 06:32:37;;;;;;;8.68;2.42;;;;;;;;;;5099130;28;20073;-75
2022/07/02 06:35:03;;;;;;;12.98;2.75;;;;;;;;;;5103695;28;20548;-75
2022/07/02 06:37:29;;;;;;;12.38;2.50;;;;;;;;;;5107801;28;20118;-74
2022/07/02 06:39:55;;;;;;;12.20;2.58;;;;;;;;;;5109909;28;20083;-74
2022/07/02 06:42:29;;;;;;;10.77;2.15;;;;;;;;;;5111068;28;20477;-74
2022/07/02 06:44:56;;;;;;;9.32;2.38;;;;;;;;;;5095746;28;20025;-75
2022/07/02 06:47:22;;;;;;;9.70;1.98;;;;;;;;;;5092907;28;20020;-75
2022/07/02 06:49:49;;;;;;;5.53;2.00;;;;;;;;;;5090441;22;20055;-73
2022/07/02 06:52:15;;;;;;;17.80;2.70;;;;;;;;;;5071908;28;20036;-74
2022/07/02 06:54:41;;;;;;;9.95;2.03;;;;;;;;;;5072939;28;20036;-71
2022/07/02 06:57:07;;;;;;;6.43;2.08;;;;;;;;;;5072756;28;20020;-72
2022/07/02 06:59:34;;;;;;;10.68;2.17;;;;;;;;;;5071764;28;20028;-71
2022/07/02 07:02:00;;;;;;;6.95;1.63;;;;;;;;;;5073419;28;20039;-71
2022/07/02 07:04:29;;;;;;;12.15;2.00;;;;;;;;;;5073146;28;20476;-71
2022/07/02 07:06:55;;;;;;;12.30;2.38;;;;;;;;;;5073210;28;20027;-72
2022/07/02 07:09:22;;;;;;;6.88;1.98;;;;;;;;;;5073409;28;20024;-71
2022/07/02 07:11:48;;;;;;;10.32;2.20;;;;;;;;;;5073421;28;20016;-72
2022/07/02 07:14:13;;;;;;;11.30;2.58;;;;;;;;;;5073374;28;20142;-71
2022/07/02 07:16:40;;;;;;;9.35;2.83;;;;;;;;;;5071703;28;20082;-72
2022/07/02 07:19:05;;;;;;;9.38;2.10;;;;;;;;;;5073391;28;20534;-72
2022/07/02 07:21:32;;;;;;;6.13;1.77;;;;;;;;;;5073334;28;20024;-71
2022/07/02 07:23:58;;;;;;;12.80;2.45;;;;;;;;;;5073218;28;20028;-72
2022/07/02 07:26:24;;;;;;;11.95;1.80;;;;;;;;;;5071619;28;20741;-71
2022/07/02 07:28:50;;;;;;;10.75;2.08;;;;;;;;;;5072588;28;20035;-72
2022/07/02 07:31:20;;;;;;;14.07;1.75;;;;;;;;;;5073486;28;20025;-72
2022/07/02 07:33:46;;;;;;;13.10;1.80;;;;;;;;;;5073221;28;20489;-71
2022/07/02 07:36:12;;;;;;;16.38;2.10;;;;;;;;;;5071743;28;20493;-72
2022/07/02 07:38:39;;;;;;;10.35;2.00;;;;;;;;;;5072352;28;20060;-73
2022/07/02 07:41:04;;;;;;;12.93;2.50;;;;;;;;;;5072937;28;20035;-73
2022/07/02 07:43:30;;;;;;;11.10;3.95;;;;;;;;;;5072807;28;20028;-75
2022/07/02 07:45:56;;;;;;;10.40;2.85;;;;;;;;;;5071621;28;20128;-73
2022/07/02 07:48:22;;;;;;;11.02;2.58;;;;;;;;;;5072629;28;20025;-71
2022/07/02 07:50:48;;;;;;;13.25;2.20;;;;;;;;;;5072387;28;20016;-71
2022/07/02 07:53:14;;;;;;;8.60;2.55;;;;;;;;;;5072810;28;20035;-73
2022/07/02 07:55:40;;;;;;;9.20;2.28;;;;;;;;;;5072633;28;20024;-73
2022/07/02 07:58:07;;;;;;;10.98;2.20;;;;;;;;;;5072874;28;20044;-72
2022/07/02 08:00:33;;;;;;;9.57;1.88;;;;;;;;;;5074865;28;20023;-73
2022/07/02 08:02:59;;;;;;;11.10;2.22;;;;;;;;;;5073261;28;20027;-74
2022/07/02 08:05:26;;;;;;;18.17;2.00;;;;;;;;;;5075072;28;20082;-71
2022/07/02 08:07:52;;;;;;;9.52;1.90;;;;;;;;;;5075390;28;20016;-73
2022/07/02 08:10:18;;;;;;;20.52;2.28;;;;;;;;;;5075443;28;20373;-72
2022/07/02 08:12:44;;;;;;;10.27;1.90;;;;;;;;;;5073712;28;20019;-76
2022/07/02 08:15:10;;;;;;;9.68;2.13;;;;;;;;;;5074532;28;20177;-72
2022/07/02 08:17:36;;;;;;;12.48;2.53;;;;;;;;;;5076085;28;20025;-75
2022/07/02 08:20:04;;;;;;;14.27;2.20;;;;;;;;;;5075014;28;20554;-74
2022/07/02 08:22:30;;;;;;;15.27;2.30;;;;;;;;;;5074915;28;20560;-75
2022/07/02 08:24:57;;;;;;;6.47;1.80;;;;;;;;;;5078317;28;20047;-73
2022/07/02 08:27:23;;;;;;;9.52;2.10;;;;;;;;;;5070949;28;20098;-74
2022/07/02 08:29:49;;;;;;;10.80;1.92;;;;;;;;;;5073515;28;20038;-73
2022/07/02 08:32:15;;;;;;;14.23;1.92;;;;;;;;;;5076078;28;20047;-73
2022/07/02 08:34:44;;;;;;;4.88;1.30;;;;;;;;;;5075020;28;20016;-75
2022/07/02 08:37:10;;;;;;;8.90;1.50;;;;;;;;;;5075401;28;20040;-74
2022/07/02 08:39:36;;;;;;;8.27;1.55;;;;;;;;;;5076409;28;20024;-74
2022/07/02 08:42:03;;;;;;;11.57;2.00;;;;;;;;;;5076059;28;20020;-76
2022/07/02 08:44:31;;;;;;;8.77;1.75;;;;;;;;;;5072265;28;20132;-73
2022/07/02 08:46:58;;;;;;;5.28;1.40;;;;;;;;;;5072217;28;20021;-73
2022/07/02 08:49:25;;;;;;;9.93;1.73;;;;;;;;;;5073819;28;20028;-75
2022/07/02 08:52:03;;;;;;;9.32;1.42;;;;;;;;;;5077638;28;20493;-76
2022/07/02 08:54:29;;;;;;;8.23;2.58;;;;;;;;;;5080026;28;20028;-75
2022/07/02 08:56:55;;;;;;;9.57;1.90;;;;;;;;;;5079063;28;20040;-74
2022/07/02 08:59:21;;;;;;;7.90;1.63;;;;;;;;;;5075494;28;20029;-73
2022/07/02 09:01:48;;;;;;;8.82;1.83;;;;;;;;;;5073364;28;20100;-74
2022/07/02 09:04:18;;;;;;;8.85;1.60;;;;;;;;;;5074058;28;20020;-72
2022/07/02 09:06:45;;;;;;;6.15;1.63;;;;;;;;;;5075490;28;20035;-75
2022/07/02 09:09:10;;;;;;;7.30;1.65;;;;;;;;;;5074633;28;20028;-74
2022/07/02 09:11:36;;;;;;;10.13;2.10;;;;;;;;;;5076129;28;20033;-73
2022/07/02 09:14:02;;;;;;;10.02;2.40;;;;;;;;;;5076701;28;20036;-73
2022/07/02 09:16:28;;;;;;;11.07;2.35;;;;;;;;;;5078339;28;20048;-73
2022/07/02 09:18:55;;;;;;;7.38;1.70;;;;;;;;;;5072948;28;20032;-73
2022/07/02 09:21:22;;;;;;;12.50;1.02;;;;;;;;;;5075095;28;20029;-76
2022/07/02 09:23:48;;;;;;;4.60;1.10;;;;;;;;;;5074508;28;20028;-74
2022/07/02 09:26:21;;;;;;;11.40;1.90;;;;;;;;;;5073296;28;20024;-74
2022/07/02 09:28:59;;;;;;;6.32;1.42;;;;;;;;;;5075814;28;20100;-72
2022/07/02 09:31:25;;;;;;;10.27;1.60;;;;;;;;;;5074517;28;20029;-74
2022/07/02 09:33:51;;;;;;;9.68;2.63;;;;;;;;;;5073913;28;20116;-73
2022/07/02 09:36:17;;;;;;;9.90;1.63;;;;;;;;;;5075340;28;20449;-74
2022/07/02 09:38:44;;;;;;;9.43;1.33;;;;;;;;;;5073735;28;20064;-73
2022/07/02 09:41:14;;;;;;;4.97;1.45;;;;;;;;;;5075417;28;20039;-74
2022/07/02 09:43:40;;;;;;;5.28;1.45;;;;;;;;;;5075301;28;20021;-73
2022/07/02 09:46:16;;;;;;;7.93;1.73;;;;;;;;;;5073393;28;20025;-74
2022/07/02 09:48:42;;;;;;;4.50;1.30;;;;;;;;;;5074398;28;20025;-74
2022/07/02 09:51:08;;;;;;;6.45;1.27;;;;;;;;;;5073081;28;20077;-75
2022/07/02 09:53:34;;;;;;;8.68;1.30;;;;;;;;;;5076570;28;20032;-75
2022/07/02 09:56:03;;;;;;;4.35;1.33;;;;;;;;;;5076306;28;20032;-72
2022/07/02 09:58:29;;;;;;;7.68;1.75;;;;;;;;;;5075278;28;20036;-74
2022/07/02 10:01:00;;;;;;;6.82;1.73;;;;;;;;;;5073990;28;20120;-74
2022/07/02 10:03:27;;;;;;;11.60;1.83;;;;;;;;;;5075245;28;20029;-74
2022/07/02 10:05:54;;;;;;;4.03;1.00;;;;;;;;;;5075288;28;20104;-74
2022/07/02 10:08:20;;;;;;;6.85;1.13;;;;;;;;;;5075079;28;20085;-74
2022/07/02 10:10:46;;;;;;;8.77;1.48;;;;;;;;;;5075536;28;20025;-73
2022/07/02 10:13:13;;;;;;;10.07;2.22;;;;;;;;;;5074879;28;20078;-73
2022/07/02 10:15:52;;;;;;;10.75;2.63;;;;;;;;;;5074392;28;20021;-72
2022/07/02 10:18:18;;;;;;;7.65;1.35;;;;;;;;;;5075400;28;20066;-74
2022/07/02 10:20:44;;;;;;;15.65;3.05;;;;;;;;;;5075506;28;20020;-75
2022/07/02 10:23:11;;;;;;;10.65;1.88;;;;;;;;;;5073708;28;20025;-74
2022/07/02 10:25:38;;;;;;;8.43;1.58;;;;;;;;;;5074399;28;20020;-74
2022/07/02 10:28:04;;;;;;;6.70;1.10;;;;;;;;;;5088196;28;20493;-75
2022/07/02 10:30:33;;;;;;;4.75;0.93;;;;;;;;;;5079040;28;20056;-75
2022/07/02 10:33:18;;;;;;;8.32;1.70;;;;;;;;;;5074622;28;20017;-74
2022/07/02 10:35:45;;;;;;;7.45;1.40;;;;;;;;;;5074485;28;20115;-74
2022/07/02 10:38:11;;;;;;;6.25;2.35;;;;;;;;;;5074805;28;20445;-76
2022/07/02 10:40:49;;;;;;;5.45;2.10;;;;;;;;;;5075306;28;20029;-76
2022/07/02 10:43:17;;;;;;;8.13;1.45;;;;;;;;;;5073469;28;20094;-76
2022/07/02 10:45:43;;;;;;;3.92;1.20;;;;;;;;;;5072296;28;20107;-74
2022/07/02 10:48:09;;;;;;;5.93;1.90;;;;;;;;;;5073997;28;20076;-73
2022/07/02 10:50:35;;;;;;;6.90;1.00;;;;;;;;;;5072931;28;20646;-74
2022/07/02 10:53:16;;;;;;;4.70;1.48;;;;;;;;;;5074148;28;20029;-73
2022/07/02 10:55:43;;;;;;;11.68;1.80;;;;;;;;;;5084087;28;20389;-74
2022/07/02 10:58:19;;;;;;;8.60;2.85;;;;;;;;;;5075352;28;20179;-76
2022/07/02 11:00:45;;;;;;;7.15;1.90;;;;;;;;;;5074321;28;20107;-76
2022/07/02 11:03:24;;;;;;;5.03;1.23;;;;;;;;;;5074023;28;20025;-74
2022/07/02 11:06:04;;;;;;;7.00;1.35;;;;;;;;;;5073787;28;20021;-76
2022/07/02 11:08:44;;;;;;;6.18;1.13;;;;;;;;;;5074286;28;20036;-74
2022/07/02 11:11:11;;;;;;;5.97;1.27;;;;;;;;;;5078673;28;20024;-75
2022/07/02 11:13:42;;;;;;;8.32;1.60;;;;;;;;;;5086379;28;20072;-74
2022/07/02 11:16:22;;;;;;;5.45;1.08;;;;;;;;;;5078468;28;20028;-74
2022/07/02 11:18:48;;;;;;;3.22;1.40;;;;;;;;;;5073787;28;20021;-74
2022/07/02 11:21:14;;;;;;;4.70;1.35;;;;;;;;;;5075651;28;20024;-73
2022/07/02 11:23:41;;;;;;;9.70;1.55;;;;;;;;;;5073619;28;20032;-75
2022/07/02 11:26:07;;;;;;;6.30;1.42;;;;;;;;;;5073183;28;20105;-75
2022/07/02 11:28:33;;;;;;;4.93;1.08;;;;;;;;;;5073740;28;20438;-74
2022/07/02 11:31:00;;;;;;;6.07;1.30;;;;;;;;;;5073217;28;20021;-76
2022/07/02 11:33:26;;;;;;;6.18;1.33;;;;;;;;;;5072782;28;20028;-75
2022/07/02 11:35:52;;;;;;;6.22;1.40;;;;;;;;;;5072577;28;20029;-74
2022/07/02 11:38:19;;;;;;;4.72;1.40;;;;;;;;;;5072788;28;20143;-74
2022/07/02 11:40:45;;;;;;;4.43;1.08;;;;;;;;;;5071639;28;20039;-75
2022/07/02 11:43:15;;;;;;;9.18;1.20;;;;;;;;;;5072901;28;20428;-75
2022/07/02 11:45:43;;;;;;;6.28;1.20;;;;;;;;;;5074448;28;20048;-75
2022/07/02 11:48:18;;;;;;;6.68;1.30;;;;;;;;;;5073301;28;20024;-74
2022/07/02 11:50:44;;;;;;;6.25;1.20;;;;;;;;;;5073667;28;20484;-74
2022/07/02 11:53:10;;;;;;;7.65;1.40;;;;;;;;;;5072582;28;20028;-74
2022/07/02 11:55:36;;;;;;;3.47;1.00;;;;;;;;;;5072541;28;20071;-74
2022/07/02 11:58:02;;;;;;;3.88;1.25;;;;;;;;;;5072404;28;20400;-74
2022/07/02 12:00:31;;;;;;;3.58;1.30;;;;;;;;;;5072848;28;20024;-73
2022/07/02 12:02:57;;;;;;;3.15;1.02;;;;;;;;;;5073221;28;20056;-73
2022/07/02 12:05:24;;;;;;;3.30;0.80;;;;;;;;;;5072813;28;20064;-76
2022/07/02 12:07:50;;;;;;;5.35;1.30;;;;;;;;;;5072479;28;20013;-76
2022/07/02 12:10:16;;;;;;;8.52;3.90;;;;;;;;;;5072544;28;20032;-74
2022/07/02 12:12:42;;;;;;;4.50;1.10;;;;;;;;;;5072090;28;20021;-74
2022/07/02 12:15:09;;;;;;;3.78;1.10;;;;;;;;;;5072746;28;20024;-75
2022/07/02 12:17:35;;;;;;;10.57;5.47;;;;;;;;;;5072905;28;20434;-75
2022/07/02 12:20:03;;;;;;;16.60;6.03;;;;;;;;;;5074165;28;20025;-74
2022/07/02 12:22:29;;;;;;;4.03;1.55;;;;;;;;;;5074069;28;20020;-74
2022/07/02 12:24:55;;;;;;;4.22;1.30;;;;;;;;;;5071955;28;20040;-76
2022/07/02 12:27:24;;;;;;;4.10;1.90;;;;;;;;;;5073677;28;20036;-75
2022/07/02 12:29:53;;;;;;;6.05;1.23;;;;;;;;;;5077735;28;20105;-75
2022/07/02 12:32:22;;;;;;;4.65;1.10;;;;;;;;;;5076726;28;20101;-74
2022/07/02 12:34:50;;;;;;;4.85;1.10;;;;;;;;;;5072674;28;20017;-75
2022/07/02 12:37:23;;;;;;;5.95;0.98;;;;;;;;;;5071207;28;20047;-74
2022/07/02 12:39:50;;;;;;;11.05;2.10;;;;;;;;;;5072878;28;20500;-75
2022/07/02 12:42:20;;;;;;;3.22;0.85;;;;;;;;;;5072067;28;20123;-76
2022/07/02 12:44:55;;;;;;;8.23;1.10;;;;;;;;;;5073350;28;20124;-76
2022/07/02 12:47:25;;;;;;;3.47;1.20;;;;;;;;;;5074052;28;20546;-74
2022/07/02 12:49:55;;;;;;;3.85;1.40;;;;;;;;;;5078513;22;20484;-77
2022/07/02 12:52:21;;;;;;;6.53;0.82;;;;;;;;;;5057487;28;20025;-77
2022/07/02 12:54:47;;;;;;;5.85;1.20;;;;;;;;;;5055696;28;20033;-78
2022/07/02 12:57:17;;;;;;;4.38;1.00;;;;;;;;;;5056602;28;20492;-80
2022/07/02 12:59:43;;;;;;;8.23;1.45;;;;;;;;;;5056087;28;20029;-78
2022/07/02 13:02:13;;;;;;;7.00;1.10;;;;;;;;;;5055652;28;20083;-74
2022/07/02 13:04:39;;;;;;;6.13;1.08;;;;;;;;;;5055047;28;20040;-75
2022/07/02 13:07:05;;;;;;;4.70;1.40;;;;;;;;;;5055265;28;20029;-75
2022/07/02 13:09:31;;;;;;;8.55;1.00;;;;;;;;;;5056078;28;20073;-75
2022/07/02 13:11:57;;;;;;;7.03;1.23;;;;;;;;;;5056206;28;20017;-75
2022/07/02 13:14:23;;;;;;;5.65;2.05;;;;;;;;;;5055291;28;20078;-82
2022/07/02 13:16:49;;;;;;;4.63;1.15;;;;;;;;;;5055492;28;20071;-76
2022/07/02 13:19:15;;;;;;;7.63;1.33;;;;;;;;;;5054360;28;20509;-77
2022/07/02 13:21:41;;;;;;;3.97;1.10;;;;;;;;;;5055504;28;20021;-77
2022/07/02 13:24:07;;;;;;;5.28;1.13;;;;;;;;;;5055564;28;20055;-76
2022/07/02 13:26:33;;;;;;;3.15;1.00;;;;;;;;;;5054729;28;20078;-76
2022/07/02 13:28:59;;;;;;;4.32;1.52;;;;;;;;;;5054921;28;20017;-76
2022/07/02 13:31:26;;;;;;;3.95;0.82;;;;;;;;;;5055081;28;20029;-76
2022/07/02 13:33:51;;;;;;;3.30;1.10;;;;;;;;;;5054711;28;20184;-77
2022/07/02 13:36:18;;;;;;;5.97;1.02;;;;;;;;;;5053256;28;20496;-77
2022/07/02 13:38:44;;;;;;;6.63;1.35;;;;;;;;;;5055117;28;20032;-76
2022/07/02 13:41:09;;;;;;;8.82;1.10;;;;;;;;;;5055198;28;20391;-78
2022/07/02 13:43:35;;;;;;;5.28;1.08;;;;;;;;;;5065396;28;20390;-76
2022/07/02 13:46:01;;;;;;;4.07;1.23;;;;;;;;;;5056984;28;20385;-76
2022/07/02 13:48:27;;;;;;;6.32;1.17;;;;;;;;;;5054346;28;20184;-76
2022/07/02 13:50:54;;;;;;;6.40;1.50;;;;;;;;;;5054096;28;20032;-76
2022/07/02 13:53:20;;;;;;;7.03;1.25;;;;;;;;;;5054095;28;20028;-77
2022/07/02 13:55:46;;;;;;;4.60;0.90;;;;;;;;;;5053885;28;20110;-76
2022/07/02 13:58:11;;;;;;;6.63;1.25;;;;;;;;;;5053737;28;20025;-77
2022/07/02 14:00:37;;;;;;;2.38;0.88;;;;;;;;;;5054068;28;20028;-76
2022/07/02 14:03:04;;;;;;;1.73;1.00;;;;;;;;;;5053810;28;20428;-77
2022/07/02 14:05:30;;;;;;;4.53;1.25;;;;;;;;;;5053475;28;20037;-76
2022/07/02 14:07:56;;;;;;;5.43;1.05;;;;;;;;;;5054411;28;20013;-76
2022/07/02 14:10:22;;;;;;;1.95;0.90;;;;;;;;;;5054398;28;20027;-78
2022/07/02 14:12:48;;;;;;;8.23;1.23;;;;;;;;;;5055384;28;20033;-78
2022/07/02 14:15:14;;;;;;;3.60;1.20;;;;;;;;;;5054981;28;20032;-77
2022/07/02 14:17:40;;;;;;;3.47;1.20;;;;;;;;;;5055500;28;20021;-75
2022/07/02 14:20:06;;;;;;;4.55;1.20;;;;;;;;;;5058708;28;20021;-77
2022/07/02 14:22:32;;;;;;;10.23;1.40;;;;;;;;;;5067509;28;20024;-76
2022/07/02 14:25:00;;;;;;;12.32;1.38;;;;;;;;;;5059030;28;20037;-77
2022/07/02 14:27:26;;;;;;;5.75;1.20;;;;;;;;;;5058639;28;20437;-77
2022/07/02 14:29:52;;;;;;;7.45;1.10;;;;;;;;;;5058948;28;20470;-77
2022/07/02 14:32:17;;;;;;;5.90;1.17;;;;;;;;;;5056012;28;20029;-77
2022/07/02 14:34:44;;;;;;;6.38;1.20;;;;;;;;;;5051788;28;20446;-77
2022/07/02 14:37:10;;;;;;;4.80;1.00;;;;;;;;;;5053692;28;20116;-76
2022/07/02 14:39:36;;;;;;;10.05;1.20;;;;;;;;;;5053975;28;20035;-78